NCAR-RAP Real-Time Weather Data

Output produced by METARs form (06 May 2021  15:56 UTC)
found at http://weather.rap.ucar.edu/surface/
 
KPIR 061453Z AUTO 29008KT 10SM CLR 09/03 A3029 RMK AO2 SLP265 T00940033 58000
KPIR 061353Z AUTO 25008KT 10SM FEW095 07/02 A3029 RMK AO2 SLP268 T00670022
KPIR 061253Z AUTO 26007KT 10SM CLR 04/01 A3030 RMK AO2 SLP270 T00440011
KPIR 061153Z AUTO 24004KT 10SM BKN095 02/00 A3029 RMK AO2 SLP268 T00170000 10033 21006 55002
KPIR 061053Z AUTO 25008KT 10SM OVC085 02/00 A3028 RMK AO2 SLP265 T00220000
KPIR 060953Z AUTO 21005KT 10SM OVC095 01/M01 A3029 RMK AO2 SLP267 T00111006
KPIR 060853Z AUTO 00000KT 10SM BKN085 01/M01 A3030 RMK AO2 SLP270 T00061006 52005
KPIR 060753Z AUTO 26006KT 10SM FEW080 01/M01 A3029 RMK AO2 SLP265 T00111011
KPIR 060653Z AUTO 24003KT 10SM FEW080 02/M01 A3029 RMK AO2 SLP263 T00221006
KPIR 060553Z AUTO 25005KT 10SM CLR 02/M01 A3028 RMK AO2 SLP261 T00171011 10083 20006 401500006 51007
KPIR 060453Z AUTO 36003KT 10SM CLR 02/M01 A3028 RMK AO2 SLP261 T00221006
KPIR 060353Z AUTO 36005KT 10SM CLR 03/00 A3028 RMK AO2 SLP261 T00280000
KPIR 060253Z AUTO 36004KT 10SM CLR 05/01 A3026 RMK AO2 SLP253 T00500011 53015
KPIR 060153Z AUTO 01004KT 10SM CLR 06/01 A3024 RMK AO2 SLP247 T00560011
KPIR 060107Z AUTO 36005KT 10SM SCT027 07/02 A3023 RMK AO2 T00720017